createdAt,value
2023-03-29T00:00:58.401Z,8.06
2023-03-29T00:01:58.390Z,7.88
2023-03-29T00:02:58.483Z,7.99
2023-03-29T00:04:00.448Z,7.99
2023-03-29T00:04:58.395Z,7.93
2023-03-29T00:05:58.373Z,8.04
2023-03-29T00:06:58.372Z,7.86
2023-03-29T00:07:58.332Z,7.81
2023-03-29T00:08:58.312Z,7.86
2023-03-29T00:09:58.286Z,7.87
2023-03-29T00:10:58.266Z,7.81
2023-03-29T00:11:58.246Z,7.96
2023-03-29T00:12:58.228Z,7.85
2023-03-29T00:13:58.210Z,7.93
2023-03-29T00:14:58.180Z,7.81
2023-03-29T00:15:58.156Z,7.90
2023-03-29T00:16:58.180Z,7.86
2023-03-29T00:17:58.197Z,7.77
2023-03-29T00:18:58.105Z,7.81
2023-03-29T00:19:58.085Z,7.76
2023-03-29T00:20:58.063Z,7.75
2023-03-29T00:21:58.045Z,7.68
2023-03-29T00:22:58.029Z,7.58
2023-03-29T00:23:58.003Z,7.63
2023-03-29T00:24:57.996Z,7.64
2023-03-29T00:25:57.972Z,7.63
2023-03-29T00:26:57.957Z,7.63
2023-03-29T00:27:57.939Z,7.55
2023-03-29T00:28:57.916Z,7.56
2023-03-29T00:29:58.918Z,7.52
2023-03-29T00:30:57.910Z,7.51
2023-03-29T00:31:57.901Z,7.43
2023-03-29T00:32:57.920Z,7.38
2023-03-29T00:33:57.834Z,7.40
2023-03-29T00:34:57.812Z,7.34
2023-03-29T00:35:57.843Z,7.34
2023-03-29T00:36:57.772Z,7.29
2023-03-29T00:37:57.757Z,7.36
2023-03-29T00:38:57.727Z,7.40
2023-03-29T00:39:57.710Z,7.39
2023-03-29T00:40:57.726Z,7.29
2023-03-29T00:41:57.790Z,7.30
2023-03-29T00:42:57.769Z,7.29
2023-03-29T00:43:57.809Z,7.29
2023-03-29T00:44:57.819Z,7.27
2023-03-29T00:45:57.923Z,7.33
2023-03-29T00:46:57.872Z,7.24
2023-03-29T00:47:58.003Z,7.26
2023-03-29T00:48:57.928Z,7.23
2023-03-29T00:49:57.959Z,7.18
2023-03-29T00:50:58.384Z,7.01
2023-03-29T00:51:58.005Z,7.06
2023-03-29T00:52:58.015Z,6.95
2023-03-29T00:53:58.048Z,7.01
2023-03-29T00:54:58.072Z,7.07
2023-03-29T00:55:58.100Z,7.10
2023-03-29T00:56:58.131Z,7.05
2023-03-29T00:57:58.110Z,7.01
2023-03-29T00:58:58.115Z,6.97
2023-03-29T00:59:58.112Z,7.01
2023-03-29T01:00:58.128Z,7.00
2023-03-29T01:01:58.247Z,6.99
2023-03-29T01:02:58.274Z,6.91
2023-03-29T01:03:58.189Z,6.84
2023-03-29T01:04:58.196Z,6.85
2023-03-29T01:05:58.236Z,6.71
2023-03-29T01:06:58.269Z,6.80
2023-03-29T01:07:58.294Z,6.74
2023-03-29T01:08:58.203Z,6.82
2023-03-29T01:09:58.217Z,6.68
2023-03-29T01:10:58.220Z,6.73
2023-03-29T01:11:58.230Z,6.71
2023-03-29T01:12:58.225Z,6.77
2023-03-29T01:13:58.242Z,6.68
2023-03-29T01:14:58.253Z,6.64
2023-03-29T01:15:58.283Z,6.57
2023-03-29T01:16:58.348Z,6.63
2023-03-29T01:17:58.464Z,6.55
2023-03-29T01:18:58.312Z,6.48
2023-03-29T01:19:58.365Z,6.46
2023-03-29T01:20:58.309Z,6.47
2023-03-29T01:21:58.312Z,6.42
2023-03-29T01:22:58.326Z,6.46
2023-03-29T01:23:58.404Z,6.39
2023-03-29T01:24:58.345Z,6.39
2023-03-29T01:25:58.351Z,6.34
2023-03-29T01:26:58.352Z,6.37
2023-03-29T01:27:58.381Z,6.41
2023-03-29T01:28:58.366Z,6.48
2023-03-29T01:29:58.428Z,6.35
2023-03-29T01:30:58.396Z,6.42
2023-03-29T01:31:58.431Z,6.30
2023-03-29T01:32:58.475Z,6.41
2023-03-29T01:33:58.477Z,6.37
2023-03-29T01:34:58.499Z,6.37
2023-03-29T01:35:58.634Z,6.31
2023-03-29T01:36:58.575Z,6.26
2023-03-29T01:37:58.582Z,6.23
2023-03-29T01:38:58.618Z,6.27
2023-03-29T01:39:58.694Z,6.17
2023-03-29T01:40:58.682Z,6.34
2023-03-29T01:41:58.705Z,6.19
2023-03-29T01:42:58.734Z,6.19
2023-03-29T01:43:58.762Z,6.14
2023-03-29T01:44:58.827Z,6.18
2023-03-29T01:45:58.847Z,6.22
2023-03-29T01:46:58.837Z,6.20
2023-03-29T01:47:58.911Z,6.21
2023-03-29T01:48:58.901Z,6.23
2023-03-29T01:49:58.936Z,6.10
2023-03-29T01:50:59.055Z,6.14
2023-03-29T01:51:58.972Z,6.13
2023-03-29T01:52:59.008Z,6.22
2023-03-29T01:53:59.031Z,6.03
2023-03-29T01:54:59.063Z,6.13
2023-03-29T01:55:59.095Z,6.19
2023-03-29T01:56:59.156Z,6.18
2023-03-29T01:57:59.162Z,6.06
2023-03-29T01:58:59.169Z,6.07
2023-03-29T01:59:59.243Z,6.14
2023-03-29T02:00:59.284Z,6.13
2023-03-29T02:01:59.316Z,6.07
2023-03-29T02:02:59.396Z,6.16
2023-03-29T02:03:59.316Z,6.16
2023-03-29T02:04:59.906Z,6.18
2023-03-29T02:05:59.370Z,6.28
2023-03-29T02:06:59.409Z,6.10
2023-03-29T02:07:59.401Z,6.22
2023-03-29T02:08:59.430Z,6.19
2023-03-29T02:09:59.475Z,6.15
2023-03-29T02:11:00.054Z,6.13
2023-03-29T02:11:59.521Z,6.19
2023-03-29T02:12:59.543Z,6.16
2023-03-29T02:13:59.573Z,6.15
2023-03-29T02:14:59.598Z,6.13
2023-03-29T02:16:00.474Z,6.15
2023-03-29T02:16:59.909Z,6.08
2023-03-29T02:17:59.761Z,6.11
2023-03-29T02:18:59.714Z,6.12
2023-03-29T02:19:59.747Z,6.15
2023-03-29T02:20:59.916Z,6.10
2023-03-29T02:21:59.807Z,6.08
2023-03-29T02:22:59.833Z,6.08
2023-03-29T02:23:59.856Z,6.02
2023-03-29T02:24:59.888Z,6.02
2023-03-29T02:25:59.902Z,6.15
2023-03-29T02:26:59.931Z,6.11
2023-03-29T02:27:59.957Z,6.06
2023-03-29T02:28:59.987Z,6.13
2023-03-29T02:30:01.264Z,5.99
2023-03-29T02:31:00.291Z,6.02
2023-03-29T02:32:00.051Z,5.85
2023-03-29T02:33:00.235Z,5.91
2023-03-29T02:34:00.144Z,6.02
2023-03-29T02:35:00.153Z,6.00
2023-03-29T02:36:00.212Z,6.02
2023-03-29T02:37:00.220Z,5.98
2023-03-29T02:38:00.230Z,5.96
2023-03-29T02:39:00.264Z,5.90
2023-03-29T02:40:00.295Z,5.81
2023-03-29T02:41:01.152Z,5.90
2023-03-29T02:42:00.439Z,5.85
2023-03-29T02:43:00.386Z,5.70
2023-03-29T02:44:01.407Z,5.83
2023-03-29T02:45:00.447Z,5.87
2023-03-29T02:46:00.484Z,5.82
2023-03-29T02:47:00.550Z,5.85
2023-03-29T02:48:00.631Z,5.80
2023-03-29T02:49:00.568Z,5.76
2023-03-29T02:50:00.609Z,5.89
2023-03-29T02:51:00.804Z,5.85
2023-03-29T02:52:00.651Z,5.76
2023-03-29T02:53:00.695Z,5.79
2023-03-29T02:54:00.713Z,5.80
2023-03-29T02:55:00.758Z,5.81
2023-03-29T02:56:00.830Z,5.78
2023-03-29T02:57:00.867Z,5.74
2023-03-29T02:58:00.827Z,5.80
2023-03-29T02:59:00.852Z,5.71
2023-03-29T03:00:01.158Z,5.75
2023-03-29T03:01:01.228Z,5.68
2023-03-29T03:02:02.035Z,5.63
2023-03-29T03:03:02.006Z,5.64
2023-03-29T03:04:01.036Z,5.53
2023-03-29T03:05:01.036Z,5.54
2023-03-29T03:06:01.041Z,5.55
2023-03-29T03:07:01.053Z,5.54
2023-03-29T03:08:01.072Z,5.38
2023-03-29T03:09:01.090Z,5.37
2023-03-29T03:10:01.105Z,5.38
2023-03-29T03:11:01.294Z,5.40
2023-03-29T03:12:01.115Z,5.33
2023-03-29T03:13:01.130Z,5.27
2023-03-29T03:14:01.140Z,5.23
2023-03-29T03:15:01.160Z,5.19
2023-03-29T03:16:01.929Z,5.23
2023-03-29T03:17:03.898Z,5.23
2023-03-29T03:18:01.149Z,5.23
2023-03-29T03:19:01.090Z,5.23
2023-03-29T03:20:01.070Z,5.16
2023-03-29T03:21:01.280Z,5.17
2023-03-29T03:22:01.009Z,5.02
2023-03-29T03:23:01.004Z,5.14
2023-03-29T03:24:00.976Z,5.04
2023-03-29T03:25:00.955Z,5.06
2023-03-29T03:26:00.939Z,5.07
2023-03-29T03:27:00.913Z,4.96
2023-03-29T03:28:00.877Z,4.99
2023-03-29T03:29:00.873Z,5.06
2023-03-29T03:30:01.080Z,4.97
2023-03-29T03:31:00.976Z,5.02
2023-03-29T03:32:00.835Z,5.06
2023-03-29T03:33:00.798Z,5.04
2023-03-29T03:34:00.760Z,4.94
2023-03-29T03:35:00.735Z,5.02
2023-03-29T03:36:00.751Z,4.95
2023-03-29T03:37:00.700Z,4.91
2023-03-29T03:38:00.683Z,5.00
2023-03-29T03:39:00.658Z,5.00
2023-03-29T03:40:00.721Z,4.92
2023-03-29T03:41:00.950Z,4.97
2023-03-29T03:42:00.591Z,4.95
2023-03-29T03:43:00.581Z,4.93
2023-03-29T03:44:00.558Z,4.91
2023-03-29T03:45:00.523Z,4.92
2023-03-29T03:46:00.561Z,4.95
2023-03-29T03:47:00.499Z,4.94
2023-03-29T03:48:00.535Z,4.86
2023-03-29T03:49:00.429Z,4.91
2023-03-29T03:50:00.400Z,4.91
2023-03-29T03:51:00.709Z,4.86
2023-03-29T03:52:00.353Z,4.87
2023-03-29T03:53:00.326Z,4.88
2023-03-29T03:54:00.306Z,4.83
2023-03-29T03:55:00.306Z,4.82
2023-03-29T03:56:00.249Z,4.84
2023-03-29T03:57:00.254Z,4.80
2023-03-29T03:58:00.196Z,4.82
2023-03-29T03:59:00.182Z,4.83
2023-03-29T04:00:00.215Z,4.74
2023-03-29T04:01:00.249Z,4.83
2023-03-29T04:02:00.196Z,4.79
2023-03-29T04:03:00.134Z,4.72
2023-03-29T04:04:00.120Z,4.79
2023-03-29T04:05:00.002Z,4.79
2023-03-29T04:05:59.970Z,4.78
2023-03-29T04:06:59.946Z,4.75
2023-03-29T04:07:59.924Z,4.72
2023-03-29T04:08:59.970Z,4.65
2023-03-29T04:09:59.858Z,4.72
2023-03-29T04:11:00.105Z,4.69
2023-03-29T04:11:59.813Z,4.65
2023-03-29T04:12:59.796Z,4.64
2023-03-29T04:13:59.762Z,4.68
2023-03-29T04:14:59.734Z,4.64
2023-03-29T04:16:01.515Z,4.64
2023-03-29T04:16:59.679Z,4.67
2023-03-29T04:17:59.714Z,4.69
2023-03-29T04:18:59.669Z,4.67
2023-03-29T04:19:59.589Z,4.59
2023-03-29T04:20:59.664Z,4.61
2023-03-29T04:21:59.531Z,4.61
2023-03-29T04:22:59.504Z,4.58
2023-03-29T04:23:59.485Z,4.59
2023-03-29T04:24:59.448Z,4.57
2023-03-29T04:25:59.423Z,4.58
2023-03-29T04:26:59.398Z,4.54
2023-03-29T04:27:59.381Z,4.56
2023-03-29T04:28:59.352Z,4.61
2023-03-29T04:29:59.323Z,4.55
2023-03-29T04:30:59.311Z,4.57
2023-03-29T04:31:59.276Z,4.54
2023-03-29T04:32:59.265Z,4.54
2023-03-29T04:34:00.409Z,4.59
2023-03-29T04:34:59.251Z,4.57
2023-03-29T04:35:59.337Z,4.58
2023-03-29T04:36:59.234Z,4.58
2023-03-29T04:37:59.241Z,4.51
2023-03-29T04:38:59.231Z,4.57
2023-03-29T04:39:59.991Z,4.56
2023-03-29T04:40:59.294Z,4.48
2023-03-29T04:41:59.220Z,4.50
2023-03-29T04:42:59.227Z,4.45
2023-03-29T04:43:59.298Z,4.44
2023-03-29T04:44:59.253Z,4.50
2023-03-29T04:45:59.237Z,4.46
2023-03-29T04:46:59.222Z,4.44
2023-03-29T04:47:59.254Z,4.51
2023-03-29T04:48:59.233Z,4.45
2023-03-29T04:49:59.234Z,4.45
2023-03-29T04:50:59.296Z,4.44
2023-03-29T04:51:59.222Z,4.47
2023-03-29T04:52:59.230Z,4.49
2023-03-29T04:53:59.237Z,4.40
2023-03-29T04:54:59.232Z,4.38
2023-03-29T04:55:59.236Z,4.42
2023-03-29T04:56:59.264Z,4.37
2023-03-29T04:57:59.239Z,4.36
2023-03-29T04:58:59.263Z,4.37
2023-03-29T04:59:59.267Z,4.35
2023-03-29T05:00:59.359Z,4.36
2023-03-29T05:01:59.262Z,4.40
2023-03-29T05:02:59.271Z,4.41
2023-03-29T05:03:59.261Z,4.39
2023-03-29T05:04:59.347Z,4.35
2023-03-29T05:05:59.246Z,4.39
2023-03-29T05:06:59.252Z,4.37
2023-03-29T05:07:59.253Z,4.29
2023-03-29T05:08:59.467Z,4.29
2023-03-29T05:09:59.267Z,4.37
2023-03-29T05:10:59.347Z,4.27
2023-03-29T05:11:59.269Z,4.28
2023-03-29T05:12:59.262Z,4.25
2023-03-29T05:13:59.276Z,4.26
2023-03-29T05:14:59.296Z,4.28
2023-03-29T05:15:59.324Z,4.26
2023-03-29T05:16:59.302Z,4.22
2023-03-29T05:17:59.413Z,4.29
2023-03-29T05:18:59.323Z,4.28
2023-03-29T05:19:59.339Z,4.10
2023-03-29T05:20:59.508Z,4.10
2023-03-29T05:21:59.350Z,4.09
2023-03-29T05:22:59.368Z,3.94
2023-03-29T05:23:59.370Z,3.98
2023-03-29T05:24:59.396Z,3.96
2023-03-29T05:25:59.391Z,4.14
2023-03-29T05:26:59.415Z,4.31
2023-03-29T05:27:59.414Z,4.17
2023-03-29T05:28:59.412Z,4.21
2023-03-29T05:29:59.431Z,3.98
2023-03-29T05:30:59.597Z,3.25
2023-03-29T05:31:59.542Z,2.10
2023-03-29T05:32:59.602Z,1.42
2023-03-29T05:33:59.569Z,1.17
2023-03-29T05:35:00.437Z,1.18
2023-03-29T05:35:59.610Z,1.49
2023-03-29T05:36:59.643Z,1.82
2023-03-29T05:37:59.692Z,2.05
2023-03-29T05:38:59.756Z,2.32
2023-03-29T05:40:05.702Z,2.57
2023-03-29T05:41:00.941Z,2.58
2023-03-29T05:41:59.721Z,2.65
2023-03-29T05:42:59.707Z,2.84
2023-03-29T05:43:59.688Z,3.30
2023-03-29T05:44:59.687Z,4.33
2023-03-29T05:45:59.678Z,4.99
2023-03-29T05:46:59.621Z,5.63
2023-03-29T05:47:59.615Z,5.97
2023-03-29T05:48:59.568Z,6.59
2023-03-29T05:49:59.540Z,7.55
2023-03-29T05:50:59.512Z,8.05
2023-03-29T05:51:59.552Z,8.87
2023-03-29T05:52:59.535Z,9.65
2023-03-29T05:53:59.987Z,7.73
2023-03-29T05:55:00.399Z,6.67
2023-03-29T05:55:59.510Z,5.49
2023-03-29T05:56:59.513Z,4.09
2023-03-29T05:57:59.492Z,4.84
2023-03-29T05:58:59.510Z,5.79
2023-03-29T05:59:59.510Z,6.21
2023-03-29T06:00:59.510Z,6.28
2023-03-29T06:01:59.488Z,6.40
2023-03-29T06:03:09.856Z,6.78
2023-03-29T06:04:00.542Z,6.80
2023-03-29T06:04:59.510Z,7.02
2023-03-29T06:05:59.460Z,7.49
2023-03-29T06:06:59.437Z,8.43
2023-03-29T06:07:59.396Z,10.36
2023-03-29T06:08:59.366Z,11.12
2023-03-29T06:09:59.331Z,12.38
2023-03-29T06:10:59.961Z,13.60
2023-03-29T06:11:59.281Z,14.72
2023-03-29T06:12:59.239Z,16.06
2023-03-29T06:13:59.212Z,16.97
2023-03-29T06:14:59.183Z,18.65
2023-03-29T06:15:59.143Z,19.88
2023-03-29T06:16:59.175Z,21.37
2023-03-29T06:17:59.106Z,22.65
2023-03-29T06:18:59.054Z,24.49
2023-03-29T06:19:59.099Z,26.29
2023-03-29T06:20:59.045Z,30.65
2023-03-29T06:21:58.992Z,28.30
2023-03-29T06:22:59.030Z,28.78
2023-03-29T06:23:58.936Z,33.59
2023-03-29T06:24:58.904Z,32.79
2023-03-29T06:25:58.920Z,16.42
2023-03-29T06:26:58.972Z,16.10
2023-03-29T06:27:59.998Z,16.84
2023-03-29T06:28:59.991Z,17.82
2023-03-29T06:29:59.091Z,17.75
2023-03-29T06:30:59.192Z,17.66
2023-03-29T06:31:59.237Z,17.77
2023-03-29T06:32:59.254Z,17.86
2023-03-29T06:33:59.233Z,17.58
2023-03-29T06:34:59.239Z,18.27
2023-03-29T06:35:59.960Z,18.34
2023-03-29T06:36:59.260Z,18.66
2023-03-29T06:37:59.270Z,19.24
2023-03-29T06:38:59.280Z,19.77
2023-03-29T06:39:59.296Z,20.22
2023-03-29T06:40:59.326Z,20.48
2023-03-29T06:42:01.982Z,20.73
2023-03-29T06:43:00.334Z,20.76
2023-03-29T06:43:59.235Z,20.83
2023-03-29T06:44:59.199Z,20.99
2023-03-29T06:45:59.214Z,21.22
2023-03-29T06:46:59.154Z,21.86
2023-03-29T06:47:59.191Z,22.31
2023-03-29T06:48:59.094Z,22.49
2023-03-29T06:49:59.072Z,22.71
2023-03-29T06:50:59.043Z,23.26
2023-03-29T06:51:59.294Z,23.46
2023-03-29T06:52:58.986Z,24.02
2023-03-29T06:53:58.971Z,24.31
2023-03-29T06:54:58.942Z,24.59
2023-03-29T06:55:58.904Z,24.75
2023-03-29T06:56:58.937Z,24.98
2023-03-29T06:58:01.734Z,24.69
2023-03-29T06:58:58.829Z,24.71
2023-03-29T06:59:58.803Z,24.73
2023-03-29T07:00:58.776Z,24.74
2023-03-29T07:01:58.896Z,24.75
2023-03-29T07:02:58.855Z,25.20
2023-03-29T07:03:58.731Z,25.16
2023-03-29T07:04:58.694Z,24.86
2023-03-29T07:05:58.741Z,25.26
2023-03-29T07:06:58.646Z,25.60
2023-03-29T07:07:58.699Z,26.28
2023-03-29T07:08:58.608Z,26.19
2023-03-29T07:09:58.623Z,26.26
2023-03-29T07:10:58.560Z,26.34
2023-03-29T07:11:58.526Z,26.73
2023-03-29T07:12:58.498Z,26.80
2023-03-29T07:13:58.463Z,27.57
2023-03-29T07:14:58.434Z,28.13
2023-03-29T07:15:58.456Z,27.23
2023-03-29T07:16:58.423Z,26.71
2023-03-29T07:17:58.431Z,24.74
2023-03-29T07:18:58.348Z,25.56
2023-03-29T07:19:58.356Z,26.42
2023-03-29T07:20:58.302Z,21.54
2023-03-29T07:21:58.283Z,13.71
2023-03-29T07:22:58.264Z,6.73
2023-03-29T07:23:58.239Z,3.93
2023-03-29T07:24:58.229Z,3.17
2023-03-29T07:25:58.212Z,3.32
2023-03-29T07:27:04.047Z,3.52
2023-03-29T07:27:59.391Z,3.53
2023-03-29T07:28:58.171Z,3.60
2023-03-29T07:29:58.165Z,3.79
2023-03-29T07:30:58.146Z,4.24
2023-03-29T07:31:58.139Z,4.92
2023-03-29T07:32:58.250Z,5.03
2023-03-29T07:33:58.145Z,5.39
2023-03-29T07:34:58.093Z,5.71
2023-03-29T07:35:58.187Z,5.98
2023-03-29T07:36:58.066Z,6.38
2023-03-29T07:37:58.044Z,6.66
2023-03-29T07:38:58.027Z,6.28
2023-03-29T07:39:58.045Z,5.94
2023-03-29T07:40:58.094Z,6.43
2023-03-29T07:41:58.164Z,6.82
2023-03-29T07:42:58.192Z,6.90
2023-03-29T07:43:58.294Z,6.82
2023-03-29T07:44:58.337Z,7.20
2023-03-29T07:45:58.358Z,7.56
2023-03-29T07:46:58.372Z,7.75
2023-03-29T07:47:58.674Z,7.91
2023-03-29T07:48:58.424Z,7.95
2023-03-29T07:49:58.458Z,8.17
2023-03-29T07:50:58.498Z,8.49
2023-03-29T07:51:58.510Z,8.62
2023-03-29T07:52:58.536Z,8.67
2023-03-29T07:53:58.602Z,8.82
2023-03-29T07:54:58.576Z,8.94
2023-03-29T07:55:58.619Z,8.88
2023-03-29T07:56:58.675Z,8.72
2023-03-29T07:57:58.637Z,8.87
2023-03-29T07:58:58.670Z,8.94
2023-03-29T07:59:58.685Z,8.95
2023-03-29T08:00:58.782Z,8.59
2023-03-29T08:01:58.713Z,8.68
2023-03-29T08:02:59.555Z,8.80
2023-03-29T08:03:58.856Z,8.98
2023-03-29T08:04:58.771Z,9.24
2023-03-29T08:05:58.755Z,9.31
2023-03-29T08:06:58.777Z,9.35
2023-03-29T08:07:58.785Z,9.35
2023-03-29T08:08:58.791Z,9.49
2023-03-29T08:09:58.795Z,9.68
2023-03-29T08:10:58.808Z,8.64
2023-03-29T08:11:58.814Z,8.46
2023-03-29T08:12:59.033Z,8.67
2023-03-29T08:13:58.836Z,7.28
2023-03-29T08:14:58.839Z,6.79
2023-03-29T08:15:58.830Z,5.41
2023-03-29T08:16:58.898Z,4.42
2023-03-29T08:17:58.891Z,2.43
2023-03-29T08:18:59.539Z,2.10
2023-03-29T08:19:58.987Z,1.54
2023-03-29T08:21:00.855Z,1.54
2023-03-29T08:21:58.921Z,1.57
2023-03-29T08:22:58.891Z,1.63
2023-03-29T08:23:58.890Z,1.76
2023-03-29T08:24:58.860Z,2.19
2023-03-29T08:25:59.534Z,2.47
2023-03-29T08:26:58.822Z,2.26
2023-03-29T08:27:58.829Z,2.59
2023-03-29T08:28:58.796Z,3.03
2023-03-29T08:29:58.777Z,3.35
2023-03-29T08:30:58.867Z,3.64
2023-03-29T08:31:58.749Z,4.10
2023-03-29T08:32:58.741Z,4.55
2023-03-29T08:33:58.734Z,4.69
2023-03-29T08:34:58.775Z,5.11
2023-03-29T08:35:58.878Z,5.44
2023-03-29T08:36:59.466Z,5.84
2023-03-29T08:37:58.837Z,6.13
2023-03-29T08:38:58.844Z,6.46
2023-03-29T08:39:58.856Z,6.79
2023-03-29T08:40:58.844Z,7.08
2023-03-29T08:41:58.857Z,7.50
2023-03-29T08:42:58.841Z,7.73
2023-03-29T08:43:58.825Z,8.32
2023-03-29T08:44:58.819Z,8.83
2023-03-29T08:45:58.817Z,9.41
2023-03-29T08:46:59.697Z,10.07
2023-03-29T08:47:58.800Z,10.48
2023-03-29T08:48:58.730Z,10.94
2023-03-29T08:49:58.703Z,11.61
2023-03-29T08:50:58.716Z,12.16
2023-03-29T08:51:58.724Z,12.78
2023-03-29T08:53:01.542Z,13.29
2023-03-29T08:53:58.756Z,14.07
2023-03-29T08:54:59.551Z,14.58
2023-03-29T08:55:58.655Z,15.20
2023-03-29T08:56:59.582Z,16.10
2023-03-29T08:57:58.598Z,16.76
2023-03-29T08:59:00.482Z,17.38
2023-03-29T08:59:58.541Z,18.11
2023-03-29T09:00:58.499Z,19.01
2023-03-29T09:01:58.540Z,19.70
2023-03-29T09:02:58.513Z,21.11
2023-03-29T09:03:58.449Z,22.49
2023-03-29T09:04:58.370Z,23.96
2023-03-29T09:05:58.337Z,23.78
2023-03-29T09:06:58.308Z,25.46
2023-03-29T09:07:58.291Z,26.16
2023-03-29T09:08:58.321Z,26.79
2023-03-29T09:09:58.342Z,27.78
2023-03-29T09:10:58.372Z,28.27
2023-03-29T09:11:58.412Z,30.22
2023-03-29T09:12:58.438Z,30.53
2023-03-29T09:13:58.458Z,32.37
2023-03-29T09:14:58.483Z,33.20
2023-03-29T09:15:58.559Z,35.43
2023-03-29T09:16:58.566Z,36.65
2023-03-29T09:17:58.667Z,38.22
2023-03-29T09:18:58.633Z,37.92
2023-03-29T09:19:58.664Z,39.70
2023-03-29T09:20:58.785Z,39.85
2023-03-29T09:21:58.747Z,40.03
2023-03-29T09:22:59.557Z,40.31
2023-03-29T09:23:58.822Z,40.32
2023-03-29T09:24:58.823Z,39.64
2023-03-29T09:25:59.618Z,39.48
2023-03-29T09:26:58.912Z,39.60
2023-03-29T09:27:58.926Z,39.59
2023-03-29T09:28:59.001Z,39.21
2023-03-29T09:29:59.070Z,38.94
2023-03-29T09:30:58.930Z,39.19
2023-03-29T09:31:58.953Z,38.62
2023-03-29T09:32:58.937Z,38.56
2023-03-29T09:33:58.838Z,38.44
2023-03-29T09:34:58.808Z,37.53
2023-03-29T09:35:58.839Z,37.25
2023-03-29T09:36:58.778Z,37.21
2023-03-29T09:37:58.763Z,36.36
2023-03-29T09:38:58.739Z,37.25
2023-03-29T09:39:58.715Z,36.36
2023-03-29T09:40:58.833Z,36.00
2023-03-29T09:41:58.683Z,36.07
2023-03-29T09:42:58.692Z,35.64
2023-03-29T09:43:59.086Z,34.22
2023-03-29T09:44:58.653Z,34.33
2023-03-29T09:45:58.675Z,34.83
2023-03-29T09:46:58.653Z,34.57
2023-03-29T09:47:58.696Z,33.91
2023-03-29T09:48:58.657Z,32.88
2023-03-29T09:49:58.637Z,33.26
2023-03-29T09:50:58.624Z,32.58
2023-03-29T09:51:58.628Z,32.38
2023-03-29T09:52:58.666Z,31.24
2023-03-29T09:53:59.071Z,32.67
2023-03-29T09:54:58.621Z,32.32
2023-03-29T09:55:58.643Z,31.63
2023-03-29T09:56:58.685Z,30.57
2023-03-29T09:57:59.579Z,31.26
2023-03-29T09:58:58.630Z,29.95
2023-03-29T09:59:58.623Z,30.82
2023-03-29T10:00:58.664Z,29.81
2023-03-29T10:01:59.564Z,29.88
2023-03-29T10:02:58.593Z,29.96
2023-03-29T10:03:58.531Z,30.02
2023-03-29T10:04:58.489Z,29.84
2023-03-29T10:05:58.464Z,29.80
2023-03-29T10:06:58.424Z,29.68
2023-03-29T10:07:58.397Z,29.01
2023-03-29T10:08:58.367Z,28.70
2023-03-29T10:09:58.431Z,28.35
2023-03-29T10:10:58.328Z,28.26
2023-03-29T10:11:58.477Z,28.31
2023-03-29T10:12:58.268Z,28.02
2023-03-29T10:13:58.297Z,27.94
2023-03-29T10:14:58.206Z,27.45
2023-03-29T10:15:58.180Z,27.29
2023-03-29T10:16:58.179Z,26.86
2023-03-29T10:17:58.152Z,26.20
2023-03-29T10:18:58.106Z,26.42
2023-03-29T10:19:58.085Z,26.55
2023-03-29T10:20:58.051Z,25.87
2023-03-29T10:21:58.031Z,26.27
2023-03-29T10:22:58.029Z,25.03
2023-03-29T10:23:57.987Z,25.37
2023-03-29T10:24:57.979Z,24.62
2023-03-29T10:25:57.940Z,24.54
2023-03-29T10:26:57.928Z,24.34
2023-03-29T10:27:57.895Z,23.97
2023-03-29T10:28:57.863Z,23.64
2023-03-29T10:29:58.100Z,23.65
2023-03-29T10:30:57.892Z,23.16
2023-03-29T10:31:57.889Z,22.55
2023-03-29T10:32:57.830Z,22.80
2023-03-29T10:33:57.785Z,22.40
2023-03-29T10:34:57.803Z,21.96
2023-03-29T10:35:57.899Z,22.34
2023-03-29T10:36:57.788Z,22.13
2023-03-29T10:37:57.778Z,21.88
2023-03-29T10:38:57.781Z,20.82
2023-03-29T10:39:57.779Z,21.42
2023-03-29T10:40:57.777Z,20.99
2023-03-29T10:41:57.781Z,20.92
2023-03-29T10:42:57.782Z,21.02
2023-03-29T10:43:57.774Z,20.71
2023-03-29T10:44:57.784Z,20.13
2023-03-29T10:45:57.878Z,19.60
2023-03-29T10:46:58.592Z,19.65
2023-03-29T10:47:57.844Z,19.71
2023-03-29T10:48:57.798Z,19.40
2023-03-29T10:49:57.789Z,18.59
2023-03-29T10:50:57.792Z,19.01
2023-03-29T10:51:57.787Z,18.05
2023-03-29T10:52:57.793Z,18.11
2023-03-29T10:53:57.784Z,17.21
2023-03-29T10:54:57.794Z,17.75
2023-03-29T10:55:57.786Z,17.70
2023-03-29T10:56:57.917Z,17.15
2023-03-29T10:57:57.782Z,17.50
2023-03-29T10:58:57.791Z,17.04
2023-03-29T10:59:57.800Z,16.84
2023-03-29T11:00:57.782Z,16.59
2023-03-29T11:01:57.874Z,16.64
2023-03-29T11:02:57.863Z,16.44
2023-03-29T11:03:57.972Z,16.05
2023-03-29T11:04:57.829Z,16.12
2023-03-29T11:05:57.803Z,16.02
2023-03-29T11:06:57.817Z,15.80
2023-03-29T11:07:57.809Z,15.51
2023-03-29T11:08:57.831Z,15.56
2023-03-29T11:09:57.815Z,15.53
2023-03-29T11:10:57.837Z,15.26
2023-03-29T11:12:08.529Z,15.13
2023-03-29T11:12:58.803Z,15.15
2023-03-29T11:13:59.821Z,15.14
2023-03-29T11:14:57.743Z,14.74
2023-03-29T11:15:57.785Z,14.92
2023-03-29T11:16:57.689Z,14.63
2023-03-29T11:17:57.730Z,14.75
2023-03-29T11:18:57.639Z,14.30
2023-03-29T11:19:57.633Z,14.37
2023-03-29T11:20:57.596Z,14.35
2023-03-29T11:21:57.598Z,14.09
2023-03-29T11:22:57.619Z,14.02
2023-03-29T11:23:57.601Z,14.01
2023-03-29T11:24:57.657Z,13.45
2023-03-29T11:25:57.611Z,13.59
2023-03-29T11:26:57.608Z,13.56
2023-03-29T11:27:57.615Z,13.37
2023-03-29T11:28:57.684Z,13.09
2023-03-29T11:29:57.615Z,13.49
2023-03-29T11:30:57.665Z,13.16
2023-03-29T11:31:57.692Z,13.15
2023-03-29T11:32:57.638Z,12.98
2023-03-29T11:33:57.633Z,12.84
2023-03-29T11:34:57.661Z,12.81
2023-03-29T11:35:57.668Z,12.71
2023-03-29T11:36:57.636Z,12.78
2023-03-29T11:37:57.638Z,12.67
2023-03-29T11:38:57.639Z,12.57
2023-03-29T11:39:57.643Z,12.34
2023-03-29T11:40:57.738Z,12.42
2023-03-29T11:41:57.669Z,12.31
2023-03-29T11:42:57.685Z,12.35
2023-03-29T11:43:57.686Z,12.11
2023-03-29T11:44:57.706Z,12.12
2023-03-29T11:45:57.772Z,11.91
2023-03-29T11:46:57.808Z,11.96
2023-03-29T11:47:57.777Z,11.88
2023-03-29T11:48:57.757Z,11.88
2023-03-29T11:49:57.799Z,11.61
2023-03-29T11:50:57.786Z,11.64
2023-03-29T11:51:57.811Z,11.75
2023-03-29T11:52:57.802Z,11.40
2023-03-29T11:53:57.811Z,11.48
2023-03-29T11:54:57.865Z,11.43
2023-03-29T11:55:58.122Z,11.41
2023-03-29T11:56:57.855Z,11.34
2023-03-29T11:57:57.878Z,11.09
2023-03-29T11:58:57.902Z,11.20
2023-03-29T11:59:57.903Z,10.88
2023-03-29T12:00:57.947Z,11.12
2023-03-29T12:01:57.972Z,10.85
2023-03-29T12:02:58.043Z,10.84
2023-03-29T12:03:58.069Z,10.84
2023-03-29T12:04:57.996Z,10.66
2023-03-29T12:05:58.024Z,10.63
2023-03-29T12:06:58.037Z,10.69
2023-03-29T12:07:58.053Z,10.54
2023-03-29T12:08:58.073Z,10.52
2023-03-29T12:09:58.122Z,10.37
2023-03-29T12:10:58.107Z,10.36
2023-03-29T12:11:58.130Z,10.29
2023-03-29T12:12:58.157Z,10.23
2023-03-29T12:13:58.163Z,10.13
2023-03-29T12:14:58.269Z,10.02
2023-03-29T12:15:58.209Z,10.01
2023-03-29T12:16:58.245Z,10.00
2023-03-29T12:17:58.283Z,9.83
2023-03-29T12:18:58.277Z,9.87
2023-03-29T12:19:58.289Z,9.79
2023-03-29T12:20:58.301Z,9.64
2023-03-29T12:21:58.315Z,9.67
2023-03-29T12:22:58.339Z,9.61
2023-03-29T12:23:58.349Z,9.50
2023-03-29T12:24:58.380Z,9.48
2023-03-29T12:25:58.398Z,9.41
2023-03-29T12:26:58.421Z,9.32
2023-03-29T12:27:58.441Z,9.40
2023-03-29T12:28:58.455Z,9.19
2023-03-29T12:29:58.473Z,9.19
2023-03-29T12:30:58.504Z,9.19
2023-03-29T12:31:58.680Z,9.12
2023-03-29T12:32:58.619Z,8.66
2023-03-29T12:33:58.603Z,8.39
2023-03-29T12:34:58.624Z,7.95
2023-03-29T12:35:58.708Z,8.24
2023-03-29T12:36:58.686Z,8.57
2023-03-29T12:37:58.728Z,8.60
2023-03-29T12:38:59.635Z,8.37
2023-03-29T12:39:58.796Z,8.36
2023-03-29T12:40:58.830Z,8.17
2023-03-29T12:41:58.858Z,8.00
2023-03-29T12:42:58.896Z,7.86
2023-03-29T12:43:59.009Z,7.78
2023-03-29T12:44:59.004Z,7.69
2023-03-29T12:45:59.054Z,7.60
2023-03-29T12:46:59.040Z,7.40
2023-03-29T12:47:59.131Z,7.30
2023-03-29T12:48:59.114Z,7.23
2023-03-29T12:49:59.150Z,7.21
2023-03-29T12:50:59.175Z,7.10
2023-03-29T12:51:59.205Z,7.03
2023-03-29T12:52:59.233Z,7.02
2023-03-29T12:53:59.270Z,6.85
2023-03-29T12:54:59.303Z,6.88
2023-03-29T12:55:59.333Z,6.88
2023-03-29T12:56:59.391Z,6.80
2023-03-29T12:57:59.404Z,6.83
2023-03-29T12:58:59.518Z,6.75
2023-03-29T12:59:59.485Z,6.70
2023-03-29T13:00:59.538Z,6.76
2023-03-29T13:01:59.640Z,6.64
2023-03-29T13:02:59.617Z,6.66
2023-03-29T13:03:59.617Z,6.61
2023-03-29T13:04:59.708Z,6.61
2023-03-29T13:05:59.842Z,6.50
2023-03-29T13:06:59.719Z,6.46
2023-03-29T13:07:59.752Z,6.50
2023-03-29T13:08:59.780Z,6.48